Time;durP1;ratioP1;P1;durP2;ratioP2;P2;SDS_P1;SDS_P2;PMS_P1;PMS_P2;Temp;Humidity;BMP_temperature;BMP_pressure;BME280_temperature;BME280_humidity;BME280_pressure;Samples;Min_cycle;Max_cycle;Signal;HPM_P1;HPM_P2
2022/11/23 00:02:17;;;;;;;5.07;2.83;;;6.00;99.40;;;;;;20996739;28;20597;-69
2022/11/23 00:12:19;;;;;;;9.33;4.80;;;5.90;99.40;;;;;;20996146;28;20653;-69
2022/11/23 00:22:21;;;;;;;12.73;4.70;;;5.80;99.40;;;;;;20995447;28;20250;-69
2022/11/23 00:32:22;;;;;;;8.60;3.90;;;5.70;99.30;;;;;;20995271;28;20208;-69
2022/11/23 00:42:24;;;;;;;6.60;3.70;;;5.60;99.30;;;;;;20994815;28;20246;-69
2022/11/23 00:52:26;;;;;;;7.33;4.00;;;5.60;99.30;;;;;;20994384;28;20211;-69
2022/11/23 01:02:27;;;;;;;5.97;3.30;;;5.60;99.60;;;;;;20994261;28;20235;-68
2022/11/23 01:12:29;;;;;;;9.30;3.80;;;5.50;99.70;;;;;;20993421;28;20219;-67
2022/11/23 01:22:30;;;;;;;7.47;3.80;;;5.30;99.30;;;;;;20993286;28;20243;-67
2022/11/23 01:32:32;;;;;;;9.63;4.00;;;5.10;99.30;;;;;;20993290;28;20199;-68
2022/11/23 01:42:43;;;;;;;7.53;3.57;;;5.20;99.60;;;;;;21000276;28;20256;-67
2022/11/23 01:52:44;;;;;;;8.03;3.60;;;5.10;99.40;;;;;;21006346;28;20225;-67
2022/11/23 02:02:56;;;;;;;6.77;3.37;;;5.10;99.30;;;;;;21006173;28;20590;-68
2022/11/23 02:13:04;;;;;;;9.00;3.13;;;5.10;99.60;;;;;;21004837;28;20241;-68
2022/11/23 02:23:13;;;;;;;8.00;3.73;;;5.10;99.50;;;;;;21004255;28;20244;-68
2022/11/23 02:33:14;;;;;;;7.60;3.03;;;5.30;99.70;;;;;;21003847;28;20220;-68
2022/11/23 02:48:08;;;;;;;5.77;2.93;;;5.40;99.70;;;;;;20984916;28;20574;-67
2022/11/23 02:58:10;;;;;;;4.27;2.83;;;5.60;99.80;;;;;;20983623;28;20213;-67
2022/11/23 03:08:11;;;;;;;5.17;3.03;;;5.70;99.90;;;;;;20983014;28;20234;-67
2022/11/23 03:18:13;;;;;;;8.23;2.77;;;5.80;99.90;;;;;;20982249;28;20210;-66
2022/11/23 03:28:15;;;;;;;9.37;2.77;;;5.90;99.90;;;;;;20981190;28;20220;-67
2022/11/23 03:38:16;;;;;;;7.53;2.80;;;6.10;99.90;;;;;;20980129;28;20210;-68
2022/11/23 03:48:18;;;;;;;5.43;2.60;;;6.20;99.90;;;;;;20979721;28;20219;-69
2022/11/23 03:58:20;;;;;;;6.07;3.20;;;6.30;99.90;;;;;;20930554;28;20664;-69
2022/11/23 04:08:21;;;;;;;6.67;3.43;;;6.30;99.80;;;;;;20923352;28;20220;-68
2022/11/23 04:18:23;;;;;;;7.00;3.67;;;6.20;99.90;;;;;;20922807;28;20206;-68
2022/11/23 04:28:24;;;;;;;7.40;3.40;;;6.30;99.90;;;;;;20920974;28;20665;-68
2022/11/23 04:38:26;;;;;;;5.93;3.23;;;6.30;99.90;;;;;;20920790;28;20241;-66
2022/11/23 04:48:28;;;;;;;7.57;3.30;;;6.30;99.90;;;;;;20920656;28;20825;-69
2022/11/23 04:58:29;;;;;;;9.00;3.63;;;6.30;99.90;;;;;;20919494;28;20570;-69
2022/11/23 05:08:36;;;;;;;6.50;3.50;;;6.40;99.90;;;;;;20916939;28;20213;-69
2022/11/23 05:18:37;;;;;;;10.63;3.73;;;6.40;99.90;;;;;;20916770;28;20235;-71
2022/11/23 05:28:39;;;;;;;6.17;3.50;;;6.50;99.90;;;;;;20916353;28;20210;-69
2022/11/23 05:38:42;;;;;;;12.33;3.30;;;6.60;99.90;;;;;;20914725;28;20240;-70
2022/11/23 05:48:44;;;;;;;12.47;3.77;;;6.60;99.90;;;;;;20915489;28;20210;-68
2022/11/23 05:58:46;;;;;;;7.33;3.90;;;6.60;99.90;;;;;;20911949;28;20760;-68
2022/11/23 06:08:48;;;;;;;9.70;4.10;;;;;;;;;;20912440;28;20633;-68
2022/11/23 06:18:50;;;;;;;8.13;4.53;;;6.60;99.90;;;;;;20912616;28;20240;-70
2022/11/23 06:28:51;;;;;;;10.07;4.30;;;6.70;99.90;;;;;;20911030;28;20210;-71
2022/11/23 06:38:53;;;;;;;8.97;3.77;;;6.80;99.90;;;;;;20909613;28;20245;-72
2022/11/23 06:48:56;;;;;;;7.23;3.87;;;6.70;99.90;;;;;;20911458;28;20209;-71
2022/11/23 06:58:58;;;;;;;6.57;3.60;;;6.80;99.90;;;;;;20910251;28;20293;-71
2022/11/23 07:08:59;;;;;;;8.70;3.33;;;6.90;99.90;;;;;;20909093;28;20217;-71
2022/11/23 07:19:01;;;;;;;9.70;3.30;;;7.00;99.90;;;;;;20908109;28;20577;-71
2022/11/23 07:29:03;;;;;;;6.83;3.20;;;7.00;99.90;;;;;;20915586;28;20213;-71
2022/11/23 07:39:04;;;;;;;6.60;3.50;;;7.10;99.90;;;;;;20924114;28;20238;-71
2022/11/23 07:49:06;;;;;;;7.27;3.40;;;7.20;99.90;;;;;;20924276;28;20589;-71
2022/11/23 07:59:08;;;;;;;9.40;3.50;;;7.30;99.90;;;;;;20922524;28;20231;-70
2022/11/23 08:09:10;;;;;;;15.53;4.57;;;7.40;99.90;;;;;;20921826;28;20208;-70
2022/11/23 08:19:11;;;;;;;7.37;3.53;;;7.60;99.90;;;;;;20921597;28;20230;-70
2022/11/23 08:29:13;;;;;;;7.43;3.40;;;7.70;99.80;;;;;;20920980;28;20205;-70
2022/11/23 08:39:18;;;;;;;12.17;3.40;;;7.80;99.70;;;;;;20918844;28;20247;-71
2022/11/23 08:58:39;;;;;;;12.70;4.00;;;;;;;;;;20981137;28;20573;-70
2022/11/23 09:08:41;;;;;;;8.43;3.73;;;8.10;99.40;;;;;;20981266;28;20215;-70
2022/11/23 09:18:43;;;;;;;11.87;4.13;;;8.20;99.30;;;;;;20981707;28;20203;-70
2022/11/23 09:28:44;;;;;;;7.07;3.63;;;8.30;99.30;;;;;;20979852;28;20219;-70
2022/11/23 09:38:46;;;;;;;8.77;3.73;;;8.50;99.30;;;;;;20980154;28;20207;-70
2022/11/23 09:49:16;;;;;;;8.73;3.93;;;8.60;99.10;;;;;;20979078;28;20241;-71
2022/11/23 09:59:29;;;;;;;7.80;3.50;;;8.70;99.10;;;;;;20978077;28;20570;-71
2022/11/23 10:09:59;;;;;;;8.30;3.30;;;8.80;99.00;;;;;;20925358;28;20235;-70
2022/11/23 10:20:18;;;;;;;6.40;3.43;;;8.90;98.90;;;;;;20922113;28;20205;-70
2022/11/23 10:30:20;;;;;;;8.37;4.00;;;9.00;99.00;;;;;;20921324;28;20285;-70
2022/11/23 10:40:25;;;;;;;13.43;3.77;;;9.20;98.90;;;;;;20920064;28;20205;-70
2022/11/23 10:50:36;;;;;;;9.23;3.67;;;9.40;98.90;;;;;;20919051;28;20244;-70
2022/11/23 11:00:41;;;;;;;9.20;3.00;;;9.70;98.80;;;;;;20918801;28;20262;-70
2022/11/23 11:10:50;;;;;;;9.53;3.10;;;9.70;99.10;;;;;;20918713;28;20694;-71
2022/11/23 11:20:57;;;;;;;5.30;2.73;;;10.20;98.40;;;;;;20915076;28;20301;-70
2022/11/23 11:31:21;;;;;;;6.33;2.90;;;10.40;98.20;;;;;;20916665;28;20291;-70
2022/11/23 11:41:24;;;;;;;8.47;2.83;;;10.60;97.90;;;;;;20915888;28;20235;-71
2022/11/23 11:51:39;;;;;;;6.67;2.70;;;10.90;97.60;;;;;;20914179;28;20637;-70
2022/11/23 12:01:49;;;;;;;7.83;3.93;;;10.90;97.20;;;;;;20914425;28;20207;-71
2022/11/23 12:11:51;;;;;;;8.70;3.37;;;11.50;96.50;;;;;;20912500;28;20239;-70
2022/11/23 12:22:13;;;;;;;5.70;2.90;;;11.70;96.20;;;;;;20911101;28;20215;-70
2022/11/23 12:32:30;;;;;;;5.53;1.80;;;11.80;96.30;;;;;;20912153;28;20763;-70
2022/11/23 12:42:41;;;;;;;120.63;111.70;;;12.00;93.80;;;;;;20899040;28;20203;-70
2022/11/23 12:53:13;;;;;;;197.53;33.20;;;12.10;92.60;;;;;;20881856;28;20257;-70
2022/11/23 13:03:54;;;;;;;9.90;1.67;;;12.20;91.70;;;;;;20907481;28;20298;-70
2022/11/23 13:14:16;;;;;;;5.63;1.50;;;12.20;92.00;;;;;;20907290;28;20247;-71
2022/11/23 13:24:37;;;;;;;3.60;1.40;;;12.20;90.60;;;;;;20903083;28;20218;-70
2022/11/23 13:34:46;;;;;;;5.80;1.43;;;12.20;90.70;;;;;;20906623;28;20771;-70
2022/11/23 13:44:47;;;;;;;3.40;1.20;;;11.90;89.80;;;;;;20921174;28;20282;-71
2022/11/23 13:55:15;;;;;;;5.20;1.80;;;11.80;90.10;;;;;;20921059;28;20243;-70
2022/11/23 14:05:58;;;;;;;4.13;1.47;;;11.80;87.70;;;;;;20920867;28;20204;-71
2022/11/23 14:16:02;;;;;;;3.80;1.67;;;11.90;88.40;;;;;;20864592;28;20242;-72
2022/11/23 14:26:07;;;;;;;4.00;1.80;;;11.80;86.30;;;;;;20919642;28;20668;-71
2022/11/23 14:36:25;;;;;;;9.97;2.10;;;11.40;86.10;;;;;;20918470;28;20232;-71
2022/11/23 14:46:26;;;;;;;5.93;1.97;;;11.20;86.20;;;;;;20918626;28;20655;-70
2022/11/23 14:56:45;;;;;;;2.53;1.50;;;11.00;86.30;;;;;;20916904;28;20247;-71
2022/11/23 15:06:51;;;;;;;1.97;1.37;;;10.60;85.70;;;;;;20916944;28;20206;-74
2022/11/23 15:16:53;;;;;;;5.63;1.60;;;10.60;86.30;;;;;;20916148;28;20237;-74
2022/11/23 15:27:03;;;;;;;6.23;2.00;;;10.40;86.00;;;;;;20915045;28;20225;-73
2022/11/23 15:37:13;;;;;;;11.50;2.90;;;10.00;86.00;;;;;;20914917;28;20233;-72
2022/11/23 15:47:27;;;;;;;11.27;3.63;;;9.90;88.00;;;;;;20913523;28;20208;-72
2022/11/23 15:57:30;;;;;;;9.20;3.10;;;9.50;88.80;;;;;;20912495;28;20239;-70
2022/11/23 16:07:32;;;;;;;8.47;3.77;;;9.10;90.10;;;;;;20913720;28;20213;-71
2022/11/23 16:17:34;;;;;;;7.13;3.93;;;9.10;90.40;;;;;;20912932;28;20317;-71
2022/11/23 16:27:36;;;;;;;11.43;4.10;;;8.80;90.80;;;;;;20913231;28;20211;-77
2022/11/23 16:37:37;;;;;;;9.33;4.30;;;8.40;91.10;;;;;;20912683;28;20236;-77
2022/11/23 16:47:52;;;;;;;17.70;5.43;;;8.40;91.50;;;;;;20912991;28;20271;-81
2022/11/23 16:57:54;;;;;;;15.80;6.27;;;8.10;91.70;;;;;;20911639;28;20784;-75
2022/11/23 17:07:56;;;;;;;13.10;6.00;;;7.90;92.10;;;;;;20911750;28;20285;-75
2022/11/23 17:17:58;;;;;;;13.80;6.87;;;7.80;92.50;;;;;;20923732;28;20607;-74
2022/11/23 17:28:00;;;;;;;18.37;7.00;;;7.90;92.60;;;;;;20926977;28;20230;-71
2022/11/23 17:38:02;;;;;;;9.23;3.50;;;8.00;93.00;;;;;;20926532;28;20285;-74
2022/11/23 17:48:04;;;;;;;9.27;3.30;;;8.10;93.00;;;;;;20926343;28;20207;-73
2022/11/23 17:58:06;;;;;;;12.23;4.37;;;8.30;93.20;;;;;;20924383;28;20241;-68
2022/11/23 18:08:09;;;;;;;9.50;3.70;;;8.70;93.20;;;;;;20924121;28;20259;-69
2022/11/23 18:18:11;;;;;;;6.87;3.87;;;8.70;93.10;;;;;;20924007;28;20289;-69
2022/11/23 18:28:17;;;;;;;11.93;4.33;;;8.70;93.10;;;;;;20921894;28;20204;-69
2022/11/23 18:38:19;;;;;;;16.27;8.90;;;;;;;;;;20921978;28;20290;-74
2022/11/23 18:48:21;;;;;;;13.37;5.90;;;8.70;93.30;;;;;;20921242;28;20613;-83
2022/11/23 18:58:24;;;;;;;14.20;6.40;;;8.60;93.60;;;;;;20920823;28;20270;-77
2022/11/23 19:08:25;;;;;;;12.43;6.40;;;8.60;93.70;;;;;;20917837;28;20647;-77
2022/11/23 19:18:27;;;;;;;12.43;7.00;;;8.60;94.30;;;;;;20916777;28;20576;-79
2022/11/23 19:28:31;;;;;;;15.60;6.13;;;8.50;94.60;;;;;;20916901;28;20261;-79
2022/11/23 19:38:33;;;;;;;16.30;7.77;;;8.50;95.30;;;;;;20874988;28;20286;-77
2022/11/23 19:48:35;;;;;;;14.37;8.00;;;8.40;96.10;;;;;;20831979;28;20204;-75
2022/11/23 19:58:37;;;;;;;14.40;7.03;;;8.40;96.40;;;;;;20830425;28;20236;-76
2022/11/23 20:08:38;;;;;;;17.53;7.80;;;8.30;96.90;;;;;;20882818;28;20207;-74
2022/11/23 20:18:42;;;;;;;14.20;6.63;;;8.30;97.50;;;;;;20911675;28;20307;-68
2022/11/23 20:28:45;;;;;;;22.67;9.57;;;8.30;97.80;;;;;;20911321;28;20219;-70
2022/11/23 20:38:47;;;;;;;20.93;9.00;;;8.30;98.30;;;;;;20889945;28;20267;-70
2022/11/23 20:48:51;;;;;;;17.43;7.27;;;8.40;98.70;;;;;;20826938;28;20206;-76
2022/11/23 20:58:55;;;;;;;12.90;6.17;;;8.40;98.80;;;;;;20827726;28;20248;-75
2022/11/23 21:08:57;;;;;;;14.80;6.90;;;8.30;99.30;;;;;;20826711;28;20664;-76
2022/11/23 21:18:59;;;;;;;11.93;6.90;;;8.40;99.60;;;;;;20825580;28;20243;-67
2022/11/23 21:29:08;;;;;;;17.97;7.53;;;8.40;99.90;;;;;;20825791;28;20217;-76
2022/11/23 21:39:10;;;;;;;18.63;8.40;;;8.40;99.90;;;;;;20824553;28;20245;-75
2022/11/23 21:49:12;;;;;;;15.73;7.17;;;8.40;99.90;;;;;;20824119;28;20228;-76
2022/11/23 21:59:14;;;;;;;14.57;7.23;;;8.40;99.90;;;;;;20829581;28;20306;-66
2022/11/23 22:09:16;;;;;;;10.93;6.20;;;8.40;99.90;;;;;;20839585;28;20208;-66
2022/11/23 22:19:17;;;;;;;18.20;7.50;;;8.40;99.90;;;;;;20838549;28;20237;-72
2022/11/23 22:29:19;;;;;;;12.30;5.70;;;8.40;99.90;;;;;;20838237;28;20275;-70
2022/11/23 22:39:21;;;;;;;10.23;4.90;;;8.30;99.90;;;;;;20837053;28;20287;-68
2022/11/23 22:49:22;;;;;;;8.23;4.30;;;8.40;99.90;;;;;;20836273;28;20777;-68
2022/11/23 22:59:24;;;;;;;5.73;3.90;;;8.50;99.90;;;;;;20836152;28;20246;-68
2022/11/23 23:09:26;;;;;;;5.67;3.50;;;8.50;99.90;;;;;;20835131;28;20667;-69
2022/11/23 23:19:28;;;;;;;4.80;2.80;;;8.60;99.90;;;;;;20833859;28;20232;-69
2022/11/23 23:29:30;;;;;;;4.57;2.47;;;8.70;99.90;;;;;;20835003;28;20212;-69
2022/11/23 23:39:32;;;;;;;4.50;2.80;;;8.80;99.90;;;;;;20835709;28;20760;-67
2022/11/23 23:49:34;;;;;;;5.83;2.37;;;8.80;99.90;;;;;;20835032;28;20290;-70
2022/11/23 23:59:35;;;;;;;5.27;2.13;;;8.80;99.90;;;;;;20833427;28;20245;-68
